createdAt,value
2023-01-11T00:00:47.959Z,7.20
2023-01-11T00:03:17.312Z,7.10
2023-01-11T00:05:46.116Z,7.10
2023-01-11T00:08:14.324Z,7.10
2023-01-11T00:10:42.665Z,7.10
2023-01-11T00:13:12.315Z,7.10
2023-01-11T00:15:43.356Z,7.10
2023-01-11T00:18:12.155Z,7.10
2023-01-11T00:20:40.645Z,7.00
2023-01-11T00:23:09.422Z,6.90
2023-01-11T00:25:38.057Z,7.00
2023-01-11T00:28:06.831Z,7.10
2023-01-11T00:30:36.568Z,7.10
2023-01-11T00:33:04.855Z,7.20
2023-01-11T00:35:33.314Z,7.20
2023-01-11T00:38:01.380Z,7.10
2023-01-11T00:40:29.517Z,7.20
2023-01-11T00:43:15.269Z,7.20
2023-01-11T00:46:13.693Z,7.20
2023-01-11T00:48:41.819Z,7.20
2023-01-11T00:51:10.009Z,7.10
2023-01-11T00:53:38.100Z,7.10
2023-01-11T00:56:06.626Z,7.20
2023-01-11T00:58:34.723Z,7.30
2023-01-11T01:01:08.802Z,7.30
2023-01-11T01:03:36.968Z,7.30
2023-01-11T01:06:05.234Z,7.20
2023-01-11T01:08:33.674Z,7.20
2023-01-11T01:11:01.806Z,7.20
2023-01-11T01:13:47.447Z,7.20
2023-01-11T01:16:16.977Z,7.30
2023-01-11T01:18:45.106Z,7.30
2023-01-11T01:21:13.343Z,7.20
2023-01-11T01:23:41.483Z,7.20
2023-01-11T01:26:09.839Z,7.10
2023-01-11T01:28:37.880Z,7.10
2023-01-11T01:31:06.006Z,7.10
2023-01-11T01:33:35.694Z,7.10
2023-01-11T01:36:04.662Z,7.10
2023-01-11T01:38:33.323Z,7.10
2023-01-11T01:41:01.483Z,7.10
2023-01-11T01:43:49.128Z,7.10
2023-01-11T01:46:18.517Z,7.10
2023-01-11T01:48:52.072Z,7.10
2023-01-11T01:51:25.494Z,7.20
2023-01-11T01:53:58.371Z,7.20
2023-01-11T01:56:30.958Z,7.20
2023-01-11T01:59:03.921Z,7.10
2023-01-11T02:01:50.741Z,7.10
2023-01-11T02:04:26.068Z,7.10
2023-01-11T02:06:59.097Z,7.20
2023-01-11T02:09:32.280Z,7.30
2023-01-11T02:12:02.122Z,7.30
2023-01-11T02:14:32.879Z,7.30
2023-01-11T02:17:01.101Z,7.30
2023-01-11T02:19:51.473Z,7.40
2023-01-11T02:23:01.901Z,7.40
2023-01-11T02:26:04.320Z,7.30
2023-01-11T02:28:40.017Z,7.30
2023-01-11T02:31:14.679Z,7.20
2023-01-11T02:33:50.767Z,7.30
2023-01-11T02:36:28.213Z,7.30
2023-01-11T02:39:02.906Z,7.40
2023-01-11T02:41:52.757Z,7.40
2023-01-11T02:44:45.504Z,7.40
2023-01-11T02:47:22.635Z,7.40
2023-01-11T02:49:56.141Z,7.50
2023-01-11T02:52:30.207Z,7.50
2023-01-11T02:55:01.838Z,7.50
2023-01-11T02:57:33.588Z,7.50
2023-01-11T03:00:04.286Z,7.50
2023-01-11T03:02:32.545Z,7.50
2023-01-11T03:05:00.668Z,7.50
2023-01-11T03:07:41.967Z,7.60
2023-01-11T03:10:24.430Z,7.60
2023-01-11T03:13:02.538Z,7.60
2023-01-11T03:15:56.253Z,7.70
2023-01-11T03:18:34.522Z,7.70
2023-01-11T03:21:16.064Z,7.70
2023-01-11T03:23:55.856Z,7.60
2023-01-11T03:26:32.401Z,7.60
2023-01-11T03:29:10.638Z,7.70
2023-01-11T03:31:46.450Z,7.60
2023-01-11T03:34:20.353Z,7.70
2023-01-11T03:36:53.744Z,7.80
2023-01-11T03:39:28.163Z,7.80
2023-01-11T03:41:59.881Z,7.90
2023-01-11T03:44:31.489Z,7.90
2023-01-11T03:47:05.945Z,7.90
2023-01-11T03:49:37.713Z,7.90
2023-01-11T03:52:08.659Z,7.90
2023-01-11T03:54:37.696Z,8.00
2023-01-11T03:57:11.503Z,8.10
2023-01-11T03:59:40.715Z,8.00
2023-01-11T04:02:18.153Z,8.00
2023-01-11T04:04:46.422Z,8.00
2023-01-11T04:07:14.818Z,8.00
2023-01-11T04:09:43.055Z,8.00
2023-01-11T04:12:11.464Z,8.00
2023-01-11T04:14:39.664Z,8.10
2023-01-11T04:17:07.703Z,8.10
2023-01-11T04:19:37.280Z,8.20
2023-01-11T04:22:05.490Z,8.20
2023-01-11T04:24:33.575Z,8.20
2023-01-11T04:27:01.770Z,8.20
2023-01-11T04:29:29.868Z,8.10
2023-01-11T04:31:57.982Z,8.10
2023-01-11T04:34:26.017Z,8.10
2023-01-11T04:36:55.651Z,8.00
2023-01-11T04:39:23.853Z,8.00
2023-01-11T04:42:09.840Z,8.10
2023-01-11T04:44:37.897Z,8.20
2023-01-11T04:47:06.017Z,8.30
2023-01-11T04:49:34.091Z,8.20
2023-01-11T04:52:03.513Z,8.20
2023-01-11T04:54:31.666Z,8.30
2023-01-11T04:56:59.842Z,8.30
2023-01-11T04:59:28.117Z,8.30
2023-01-11T05:01:56.207Z,8.40
2023-01-11T05:04:24.328Z,8.40
2023-01-11T05:06:53.476Z,8.40
2023-01-11T05:09:23.094Z,8.40
2023-01-11T05:11:51.363Z,8.40
2023-01-11T05:14:19.615Z,8.50
2023-01-11T05:16:47.809Z,8.40
2023-01-11T05:19:16.107Z,8.50
2023-01-11T05:21:44.221Z,8.50
2023-01-11T05:24:15.679Z,8.50
2023-01-11T05:26:46.360Z,8.50
2023-01-11T05:29:16.194Z,8.60
2023-01-11T05:31:44.407Z,8.60
2023-01-11T05:34:14.127Z,8.70
2023-01-11T05:36:42.745Z,8.60
2023-01-11T05:39:13.172Z,8.60
2023-01-11T05:41:41.549Z,8.60
2023-01-11T05:44:30.749Z,8.60
2023-01-11T05:46:58.920Z,8.50
2023-01-11T05:49:27.083Z,8.40
2023-01-11T05:51:55.237Z,8.40
2023-01-11T05:54:23.451Z,8.40
2023-01-11T05:56:51.510Z,8.50
2023-01-11T05:59:21.001Z,8.50
2023-01-11T06:01:50.126Z,8.60
2023-01-11T06:04:18.229Z,8.60
2023-01-11T06:06:46.610Z,8.50
2023-01-11T06:09:14.719Z,8.50
2023-01-11T06:11:43.191Z,8.50
2023-01-11T06:14:11.335Z,8.50
2023-01-11T06:16:40.774Z,8.60
2023-01-11T06:19:11.311Z,8.50
2023-01-11T06:21:39.898Z,8.60
2023-01-11T06:24:08.535Z,8.50
2023-01-11T06:26:36.636Z,8.40
2023-01-11T06:29:04.701Z,8.40
2023-01-11T06:31:33.187Z,8.40
2023-01-11T06:34:02.772Z,8.30
2023-01-11T06:36:30.891Z,8.30
2023-01-11T06:38:58.975Z,8.40
2023-01-11T06:41:28.628Z,8.40
2023-01-11T06:43:56.803Z,8.40
2023-01-11T06:46:27.536Z,8.40
2023-01-11T06:48:57.203Z,8.30
2023-01-11T06:51:26.669Z,8.30
2023-01-11T06:53:54.886Z,8.40
2023-01-11T06:56:23.614Z,8.40
2023-01-11T06:58:52.631Z,8.40
2023-01-11T07:01:21.021Z,8.50
2023-01-11T07:03:49.253Z,8.50
2023-01-11T07:06:17.388Z,8.50
2023-01-11T07:08:46.837Z,8.50
2023-01-11T07:11:14.956Z,8.50
2023-01-11T07:13:43.015Z,8.60
2023-01-11T07:16:11.172Z,8.60
2023-01-11T07:18:39.436Z,8.70
2023-01-11T07:21:07.567Z,8.60
2023-01-11T07:23:35.924Z,8.60
2023-01-11T07:26:05.598Z,8.60
2023-01-11T07:28:33.676Z,8.60
2023-01-11T07:31:01.841Z,8.70
2023-01-11T07:33:29.961Z,8.70
2023-01-11T07:36:00.593Z,8.70
2023-01-11T07:38:29.251Z,8.70
2023-01-11T07:40:57.334Z,8.70
2023-01-11T07:43:25.925Z,8.70
2023-01-11T07:45:54.545Z,8.80
2023-01-11T07:48:26.464Z,8.80
2023-01-11T07:50:55.351Z,8.80
2023-01-11T07:53:25.962Z,8.70
2023-01-11T07:55:55.696Z,8.70
2023-01-11T07:58:24.013Z,8.80
2023-01-11T08:00:53.544Z,8.90
2023-01-11T08:03:21.811Z,8.90
2023-01-11T08:05:52.301Z,9.00
2023-01-11T08:08:20.391Z,9.10
2023-01-11T08:11:08.585Z,9.00
2023-01-11T08:13:53.959Z,9.10
2023-01-11T08:16:23.496Z,9.10
2023-01-11T08:18:51.923Z,9.20
2023-01-11T08:21:21.255Z,9.20
2023-01-11T08:23:49.533Z,9.10
2023-01-11T08:26:18.022Z,9.20
2023-01-11T08:28:46.780Z,9.20
2023-01-11T08:31:14.979Z,9.20
2023-01-11T08:33:44.810Z,9.20
2023-01-11T08:36:14.123Z,9.20
2023-01-11T08:38:42.605Z,9.20
2023-01-11T08:41:11.740Z,9.30
2023-01-11T08:43:40.186Z,9.30
2023-01-11T08:46:08.909Z,9.30
2023-01-11T08:48:38.051Z,9.50
2023-01-11T08:51:07.588Z,9.50
2023-01-11T08:53:35.909Z,9.60
2023-01-11T08:56:03.981Z,9.60
2023-01-11T08:58:32.244Z,9.50
2023-01-11T09:01:02.748Z,9.40
2023-01-11T09:03:31.072Z,9.40
2023-01-11T09:05:59.351Z,9.30
2023-01-11T09:08:29.580Z,9.20
2023-01-11T09:10:59.831Z,9.00
2023-01-11T09:13:28.388Z,8.90
2023-01-11T09:15:57.515Z,8.90
2023-01-11T09:18:26.947Z,8.80
2023-01-11T09:20:55.510Z,8.80
2023-01-11T09:23:23.657Z,9.00
2023-01-11T09:25:53.266Z,9.10
2023-01-11T09:28:21.539Z,9.10
2023-01-11T09:30:49.981Z,9.10
2023-01-11T09:33:18.190Z,9.20
2023-01-11T09:35:47.051Z,9.20
2023-01-11T09:38:15.400Z,9.20
2023-01-11T09:40:57.088Z,9.10
2023-01-11T09:43:30.383Z,9.20
2023-01-11T09:46:06.743Z,9.10
2023-01-11T09:48:40.960Z,9.10
2023-01-11T09:51:12.502Z,9.10
2023-01-11T09:53:42.702Z,9.20
2023-01-11T09:56:14.814Z,9.40
2023-01-11T09:59:05.447Z,9.40
2023-01-11T10:01:38.886Z,9.40
2023-01-11T10:04:40.219Z,9.40
2023-01-11T10:07:26.681Z,9.40
2023-01-11T10:18:31.358Z,9.50
2023-01-11T10:19:34.545Z,9.50
2023-01-11T10:22:00.541Z,9.50
2023-01-11T10:24:33.761Z,9.50
2023-01-11T10:27:05.892Z,9.50
2023-01-11T10:29:54.641Z,9.60
2023-01-11T10:32:53.161Z,9.70
2023-01-11T10:35:59.089Z,9.70
2023-01-11T10:38:58.698Z,9.80
2023-01-11T10:41:37.595Z,9.80
2023-01-11T10:44:19.251Z,9.80
2023-01-11T10:46:50.842Z,9.80
2023-01-11T10:49:44.505Z,9.80
2023-01-11T10:52:24.206Z,9.90
2023-01-11T10:54:55.919Z,9.90
2023-01-11T10:58:01.500Z,9.90
2023-01-11T11:00:38.566Z,10.00
2023-01-11T11:03:37.755Z,9.90
2023-01-11T11:06:14.965Z,10.00
2023-01-11T11:08:50.822Z,10.10
2023-01-11T11:11:23.256Z,10.10
2023-01-11T11:13:56.961Z,10.20
2023-01-11T11:16:39.311Z,10.20
2023-01-11T11:19:13.322Z,10.10
2023-01-11T11:21:44.478Z,10.10
2023-01-11T11:24:22.227Z,10.10
2023-01-11T11:26:54.841Z,10.10
2023-01-11T11:29:29.168Z,10.20
2023-01-11T11:32:00.047Z,10.20
2023-01-11T11:34:30.776Z,10.20
2023-01-11T11:37:01.685Z,10.30
2023-01-11T11:39:31.988Z,10.40
2023-01-11T11:42:07.475Z,10.50
2023-01-11T11:44:35.791Z,10.50
2023-01-11T11:47:06.151Z,10.50
2023-01-11T11:49:35.664Z,10.50
2023-01-11T11:52:07.209Z,10.50
2023-01-11T11:54:37.440Z,10.50
2023-01-11T11:57:16.814Z,10.50
2023-01-11T11:59:48.321Z,10.50
2023-01-11T12:02:25.102Z,10.50
2023-01-11T12:04:54.618Z,10.60
2023-01-11T12:07:26.819Z,10.60
2023-01-11T12:09:59.772Z,10.70
2023-01-11T12:12:29.673Z,10.70
2023-01-11T12:15:21.498Z,10.70
2023-01-11T12:17:50.261Z,10.70
2023-01-11T12:20:41.440Z,10.70
2023-01-11T12:23:15.405Z,10.70
2023-01-11T12:25:59.532Z,10.70
2023-01-11T12:28:38.958Z,10.70
2023-01-11T12:31:16.288Z,10.70
2023-01-11T12:33:52.005Z,10.70
2023-01-11T12:36:29.360Z,10.70
2023-01-11T12:39:07.664Z,10.70
2023-01-11T12:41:55.950Z,10.80
2023-01-11T12:44:46.808Z,10.70
2023-01-11T12:47:46.562Z,10.70
2023-01-11T12:50:22.770Z,10.70
2023-01-11T12:53:05.669Z,10.70
2023-01-11T12:55:46.420Z,10.80
2023-01-11T12:58:21.337Z,10.70
2023-01-11T13:01:13.720Z,10.70
2023-01-11T13:04:26.584Z,10.70
2023-01-11T13:07:07.900Z,10.60
2023-01-11T13:09:48.241Z,10.50
2023-01-11T13:12:23.897Z,10.50
2023-01-11T13:15:08.292Z,10.60
2023-01-11T13:17:42.886Z,10.60
2023-01-11T13:20:40.374Z,10.70
2023-01-11T13:23:25.113Z,10.70
2023-01-11T13:25:55.246Z,10.80
2023-01-11T13:28:30.042Z,10.80
2023-01-11T13:30:59.193Z,10.80
2023-01-11T13:33:31.895Z,10.80
2023-01-11T13:36:15.066Z,10.80
2023-01-11T13:38:56.397Z,10.80
2023-01-11T13:41:28.647Z,10.80
2023-01-11T13:44:03.267Z,10.80
2023-01-11T13:46:44.980Z,10.80
2023-01-11T13:49:22.078Z,10.80
2023-01-11T13:51:54.044Z,10.80
2023-01-11T13:54:31.740Z,10.80
2023-01-11T13:57:03.222Z,10.80
2023-01-11T13:59:35.588Z,10.70
2023-01-11T14:02:11.135Z,10.70
2023-01-11T14:04:48.171Z,10.80
2023-01-11T14:07:29.005Z,10.70
2023-01-11T14:10:21.306Z,10.70
2023-01-11T14:13:34.537Z,10.80
2023-01-11T14:16:13.236Z,10.80
2023-01-11T14:18:48.020Z,10.80
2023-01-11T14:21:23.096Z,10.80
2023-01-11T14:23:53.731Z,10.80
2023-01-11T14:26:58.070Z,10.80
2023-01-11T14:29:49.479Z,10.90
2023-01-11T14:32:53.628Z,10.90
2023-01-11T14:35:46.984Z,10.90
2023-01-11T14:38:30.158Z,10.80
2023-01-11T14:41:23.837Z,10.80
2023-01-11T14:44:18.831Z,10.80
2023-01-11T14:47:12.864Z,10.80
2023-01-11T14:49:57.710Z,10.80
2023-01-11T14:52:39.672Z,10.90
2023-01-11T14:55:17.370Z,10.80
2023-01-11T14:58:01.325Z,10.90
2023-01-11T15:01:05.810Z,10.90
2023-01-11T15:03:56.529Z,10.90
2023-01-11T15:06:26.094Z,10.90
2023-01-11T15:08:56.062Z,10.90
2023-01-11T15:11:36.434Z,10.90
2023-01-11T15:14:23.659Z,10.90
2023-01-11T15:17:11.826Z,10.90
2023-01-11T15:19:43.032Z,11.00
2023-01-11T15:22:29.009Z,11.00
2023-01-11T15:25:00.647Z,11.00
2023-01-11T15:27:33.574Z,11.00
2023-01-11T15:30:01.852Z,11.00
2023-01-11T15:32:31.980Z,11.00
2023-01-11T15:35:32.671Z,11.00
2023-01-11T15:38:09.961Z,11.00
2023-01-11T15:40:41.638Z,11.00
2023-01-11T15:43:46.963Z,11.00
2023-01-11T15:46:54.294Z,11.00
2023-01-11T15:50:06.280Z,11.00
2023-01-11T15:53:24.245Z,11.00
2023-01-11T15:56:31.316Z,11.10
2023-01-11T15:59:50.790Z,11.10
2023-01-11T16:02:58.469Z,11.10
2023-01-11T16:05:28.959Z,11.10
2023-01-11T16:08:04.655Z,11.00
2023-01-11T16:10:52.678Z,11.10
2023-01-11T16:13:45.248Z,11.10
2023-01-11T16:16:20.452Z,11.20
2023-01-11T16:18:53.251Z,11.20
2023-01-11T16:21:30.371Z,11.20
2023-01-11T16:23:58.822Z,11.20
2023-01-11T16:26:28.620Z,11.20
2023-01-11T16:28:59.738Z,11.20
2023-01-11T16:31:59.960Z,11.20
2023-01-11T16:34:29.865Z,11.20
2023-01-11T16:36:58.494Z,11.30
2023-01-11T16:39:30.413Z,11.40
2023-01-11T16:42:03.308Z,11.40
2023-01-11T16:44:41.744Z,11.40
2023-01-11T16:47:18.762Z,11.20
2023-01-11T16:49:49.812Z,11.20
2023-01-11T16:52:39.181Z,11.10
2023-01-11T16:55:26.790Z,11.20
2023-01-11T16:57:58.321Z,11.20
2023-01-11T17:00:32.631Z,11.30
2023-01-11T17:03:19.914Z,11.30
2023-01-11T17:06:26.105Z,11.40
2023-01-11T17:08:56.441Z,11.40
2023-01-11T17:11:32.508Z,11.50
2023-01-11T17:14:25.609Z,11.50
2023-01-11T17:16:59.684Z,11.50
2023-01-11T17:19:31.881Z,11.50
2023-01-11T17:22:04.825Z,11.50
2023-01-11T17:24:37.070Z,11.50
2023-01-11T17:27:08.286Z,11.50
2023-01-11T17:29:39.981Z,11.50
2023-01-11T17:32:14.518Z,11.50
2023-01-11T17:34:44.555Z,11.60
2023-01-11T17:37:16.143Z,11.60
2023-01-11T17:39:48.156Z,11.60
2023-01-11T17:42:34.761Z,11.60
2023-01-11T17:45:16.597Z,11.50
2023-01-11T17:47:48.581Z,11.50
2023-01-11T17:50:28.559Z,11.50
2023-01-11T17:53:05.502Z,11.40
2023-01-11T17:55:34.231Z,11.40
2023-01-11T17:58:18.858Z,11.40
2023-01-11T18:01:15.841Z,11.30
2023-01-11T18:03:45.668Z,11.30
2023-01-11T18:06:23.793Z,11.30
2023-01-11T18:08:55.024Z,11.30
2023-01-11T18:11:26.144Z,11.30
2023-01-11T18:13:55.607Z,11.20
2023-01-11T18:16:24.491Z,11.30
2023-01-11T18:18:54.015Z,11.20
2023-01-11T18:21:40.533Z,11.10
2023-01-11T18:24:30.808Z,11.10
2023-01-11T18:27:27.224Z,11.20
2023-01-11T18:29:56.589Z,11.10
2023-01-11T18:32:25.368Z,11.10
2023-01-11T18:34:55.779Z,11.10
2023-01-11T18:37:25.330Z,11.00
2023-01-11T18:39:54.206Z,11.00
2023-01-11T18:42:29.479Z,11.00
2023-01-11T18:44:57.872Z,10.90
2023-01-11T18:47:28.465Z,10.90
2023-01-11T18:49:57.072Z,10.90
2023-01-11T18:52:29.336Z,10.90
2023-01-11T18:54:58.398Z,10.80
2023-01-11T18:57:26.802Z,10.80
2023-01-11T18:59:55.479Z,10.80
2023-01-11T19:02:27.110Z,10.80
2023-01-11T19:04:56.298Z,10.80
2023-01-11T19:07:27.228Z,10.80
2023-01-11T19:09:55.911Z,10.80
2023-01-11T19:12:24.670Z,10.80
2023-01-11T19:14:52.787Z,10.80
2023-01-11T19:17:21.113Z,10.70
2023-01-11T19:19:49.352Z,10.70
2023-01-11T19:22:17.613Z,10.70
2023-01-11T19:24:47.166Z,10.70
2023-01-11T19:27:15.572Z,10.60
2023-01-11T19:29:43.797Z,10.70
2023-01-11T19:32:11.949Z,10.70
2023-01-11T19:34:41.086Z,10.80
2023-01-11T19:37:09.689Z,10.80
2023-01-11T19:39:40.084Z,10.80
2023-01-11T19:42:09.603Z,10.80
2023-01-11T19:44:39.765Z,10.80
2023-01-11T19:47:12.482Z,10.70
2023-01-11T19:49:41.706Z,10.70
2023-01-11T19:52:13.204Z,10.70
2023-01-11T19:54:43.005Z,10.60
2023-01-11T19:57:14.176Z,10.50
2023-01-11T19:59:42.736Z,10.50
2023-01-11T20:02:13.382Z,10.50
2023-01-11T20:04:42.125Z,10.40
2023-01-11T20:07:12.261Z,10.30
2023-01-11T20:09:40.399Z,10.20
2023-01-11T20:12:10.343Z,10.20
2023-01-11T20:14:40.620Z,10.20
2023-01-11T20:17:09.281Z,10.20
2023-01-11T20:19:37.547Z,10.30
2023-01-11T20:22:05.663Z,10.30
2023-01-11T20:24:33.915Z,10.30
2023-01-11T20:27:03.459Z,10.30
2023-01-11T20:29:31.766Z,10.30
2023-01-11T20:32:24.759Z,10.20
2023-01-11T20:34:49.533Z,10.20
2023-01-11T20:37:17.768Z,10.20
2023-01-11T20:39:46.026Z,10.20
2023-01-11T20:42:14.458Z,10.10
2023-01-11T20:44:42.617Z,10.10
2023-01-11T20:47:12.180Z,10.00
2023-01-11T20:49:41.121Z,10.00
2023-01-11T20:52:09.346Z,10.00
2023-01-11T20:54:37.529Z,10.00
2023-01-11T20:57:12.268Z,10.00
2023-01-11T20:59:40.661Z,10.00
2023-01-11T21:02:10.144Z,9.90
2023-01-11T21:04:39.618Z,9.90
2023-01-11T21:07:07.767Z,9.90
2023-01-11T21:09:35.887Z,9.90
2023-01-11T21:12:03.976Z,9.90
2023-01-11T21:14:32.137Z,9.90
2023-01-11T21:17:00.250Z,10.00
2023-01-11T21:19:28.357Z,9.90
2023-01-11T21:21:57.872Z,9.90
2023-01-11T21:24:26.021Z,9.90
2023-01-11T21:26:54.143Z,9.90
2023-01-11T21:29:22.414Z,9.90
2023-01-11T21:31:50.682Z,9.80
2023-01-11T21:34:19.138Z,9.80
2023-01-11T21:36:47.371Z,9.80
2023-01-11T21:39:18.185Z,9.70
2023-01-11T21:41:59.697Z,9.70
2023-01-11T21:44:33.581Z,9.70
2023-01-11T21:47:02.817Z,9.60
2023-01-11T21:49:31.011Z,9.60
2023-01-11T21:51:59.398Z,9.50
2023-01-11T21:54:29.224Z,9.50
2023-01-11T21:56:57.412Z,9.40
2023-01-11T21:59:25.799Z,9.40
2023-01-11T22:01:54.313Z,9.40
2023-01-11T22:04:22.970Z,9.40
2023-01-11T22:06:56.107Z,9.30
2023-01-11T22:09:26.197Z,9.40
2023-01-11T22:11:56.038Z,9.40
2023-01-11T22:14:24.277Z,9.40
2023-01-11T22:16:52.374Z,9.40
2023-01-11T22:19:20.937Z,9.30
2023-01-11T22:21:49.021Z,9.30
2023-01-11T22:24:17.813Z,9.30
2023-01-11T22:26:46.066Z,9.40
2023-01-11T22:29:19.801Z,9.30
2023-01-11T22:31:51.382Z,9.20
2023-01-11T22:34:20.466Z,9.20
2023-01-11T22:36:48.814Z,9.20
2023-01-11T22:39:19.334Z,9.10
2023-01-11T22:41:48.315Z,9.10
2023-01-11T22:44:18.262Z,9.00
2023-01-11T22:46:46.675Z,9.00
2023-01-11T22:49:15.800Z,9.00
2023-01-11T22:51:45.035Z,9.00
2023-01-11T22:54:13.699Z,8.90
2023-01-11T22:56:42.424Z,8.90
2023-01-11T22:59:10.695Z,8.90
2023-01-11T23:01:41.891Z,8.80
2023-01-11T23:04:13.725Z,8.80
2023-01-11T23:06:43.298Z,8.80
2023-01-11T23:09:15.952Z,8.80
2023-01-11T23:11:59.080Z,8.80
2023-01-11T23:14:30.320Z,8.80
2023-01-11T23:17:01.387Z,8.70
2023-01-11T23:19:31.941Z,8.70
2023-01-11T23:22:00.180Z,8.60
2023-01-11T23:24:28.336Z,8.60
2023-01-11T23:26:56.558Z,8.60
2023-01-11T23:29:27.792Z,8.60
2023-01-11T23:31:55.975Z,8.60
2023-01-11T23:34:25.808Z,8.50
2023-01-11T23:36:53.933Z,8.40
2023-01-11T23:39:23.573Z,8.30
2023-01-11T23:42:08.991Z,8.30
2023-01-11T23:44:37.103Z,8.30
2023-01-11T23:47:24.936Z,8.30
2023-01-11T23:49:56.080Z,8.30
2023-01-11T23:52:25.573Z,8.20
2023-01-11T23:54:53.882Z,8.30
2023-01-11T23:57:23.055Z,8.20
2023-01-11T23:59:51.262Z,8.30
